createdAt,value
2019-04-03T00:03:45.807Z,20.70
2019-04-03T00:08:53.198Z,20.60
2019-04-03T00:13:59.018Z,20.40
2019-04-03T00:19:05.590Z,20.30
2019-04-03T00:24:11.671Z,20.20
2019-04-03T00:29:17.577Z,20.10
2019-04-03T00:34:23.920Z,20.00
2019-04-03T00:39:29.748Z,20.00
2019-04-03T00:44:35.658Z,20.20
2019-04-03T00:49:41.372Z,20.40
2019-04-03T00:54:48.699Z,20.60
2019-04-03T00:59:56.503Z,20.80
2019-04-03T01:05:02.589Z,21.00
2019-04-03T01:10:08.358Z,21.20
2019-04-03T01:15:14.187Z,21.40
2019-04-03T01:20:20.493Z,21.50
2019-04-03T01:25:26.447Z,21.60
2019-04-03T01:30:32.268Z,21.70
2019-04-03T01:35:37.903Z,21.80
2019-04-03T01:40:43.473Z,21.90
2019-04-03T01:45:49.526Z,22.00
2019-04-03T01:50:55.728Z,22.10
2019-04-03T01:56:02.700Z,22.20
2019-04-03T02:01:08.921Z,22.20
2019-04-03T02:06:14.771Z,22.30
2019-04-03T02:11:20.698Z,22.40
2019-04-03T02:16:26.718Z,22.40
2019-04-03T02:21:31.948Z,22.40
2019-04-03T02:26:37.737Z,22.50
2019-04-03T02:31:43.608Z,22.60
2019-04-03T02:36:49.588Z,22.60
2019-04-03T02:41:55.380Z,22.60
2019-04-03T02:47:01.466Z,22.70
2019-04-03T02:52:07.390Z,22.70
2019-04-03T02:57:16.238Z,22.70
2019-04-03T03:02:20.705Z,22.70
2019-04-03T03:07:26.651Z,22.80
2019-04-03T03:12:33.072Z,22.80
2019-04-03T03:17:39.059Z,22.80
2019-04-03T03:22:44.745Z,22.80
2019-04-03T03:27:50.634Z,22.90
2019-04-03T03:33:21.643Z,22.90
2019-04-03T03:38:07.093Z,22.90
2019-04-03T03:43:11.702Z,22.90
2019-04-03T03:48:17.511Z,22.90
2019-04-03T03:53:23.466Z,22.90
2019-04-03T03:58:29.698Z,22.90
2019-04-03T04:03:36.008Z,23.00
2019-04-03T04:08:44.198Z,23.00
2019-04-03T04:13:49.808Z,22.90
2019-04-03T04:18:57.749Z,23.00
2019-04-03T04:24:03.466Z,23.00
2019-04-03T04:29:10.734Z,23.00
2019-04-03T04:34:18.310Z,23.00
2019-04-03T04:39:24.058Z,23.00
2019-04-03T04:44:29.737Z,23.00
2019-04-03T04:49:35.610Z,23.00
2019-04-03T04:54:42.882Z,23.00
2019-04-03T04:59:49.027Z,23.10
2019-04-03T05:04:55.897Z,23.00
2019-04-03T05:10:02.314Z,23.10
2019-04-03T05:15:08.269Z,23.10
2019-04-03T05:20:14.248Z,23.10
2019-04-03T05:25:20.212Z,23.10
2019-04-03T05:30:32.286Z,23.10
2019-04-03T05:35:38.368Z,23.10
2019-04-03T05:40:44.030Z,23.10
2019-04-03T05:45:49.977Z,23.10
2019-04-03T05:50:57.657Z,23.10
2019-04-03T05:56:03.107Z,23.20
2019-04-03T06:01:11.458Z,23.20
2019-04-03T06:06:16.688Z,23.20
2019-04-03T06:11:22.468Z,23.20
2019-04-03T06:16:28.599Z,23.20
2019-04-03T06:21:35.955Z,23.20
2019-04-03T06:26:44.882Z,23.20
2019-04-03T06:31:50.317Z,23.20
2019-04-03T06:36:57.489Z,23.20
2019-04-03T06:42:03.399Z,23.30
2019-04-03T06:47:27.919Z,23.30
2019-04-03T06:52:34.069Z,23.30
2019-04-03T06:57:40.267Z,23.30
2019-04-03T07:02:46.322Z,23.30
2019-04-03T07:07:52.156Z,23.30
2019-04-03T07:12:57.930Z,23.30
2019-04-03T07:18:05.706Z,23.30
2019-04-03T07:23:11.576Z,23.30
2019-04-03T07:28:17.849Z,23.40
2019-04-03T07:33:23.678Z,23.30
2019-04-03T07:38:30.348Z,23.40
2019-04-03T07:43:36.772Z,23.40
2019-04-03T07:48:42.757Z,23.40
2019-04-03T07:53:50.595Z,23.40
2019-04-03T07:58:56.489Z,23.40
2019-04-03T08:04:02.618Z,23.40
2019-04-03T08:09:10.491Z,23.40
2019-04-03T08:14:19.052Z,23.40
2019-04-03T08:19:24.322Z,23.40
2019-04-03T08:24:30.439Z,23.50
2019-04-03T08:29:38.234Z,23.40
2019-04-03T08:34:44.306Z,23.50
2019-04-03T08:39:50.316Z,23.50
2019-04-03T08:44:56.338Z,23.50
2019-04-03T08:50:02.560Z,23.60
2019-04-03T08:55:08.492Z,23.60
2019-04-03T09:00:14.239Z,23.60
2019-04-03T09:05:20.565Z,23.70
2019-04-03T09:10:26.197Z,23.70
2019-04-03T09:15:32.040Z,23.80
2019-04-03T09:20:37.858Z,23.70
2019-04-03T09:25:43.858Z,23.60
2019-04-03T09:30:49.676Z,23.30
2019-04-03T09:35:58.772Z,23.00
2019-04-03T09:41:03.197Z,22.80
2019-04-03T09:46:08.959Z,22.60
2019-04-03T09:51:16.068Z,22.60
2019-04-03T09:56:22.292Z,22.60
2019-04-03T10:01:28.657Z,22.70
2019-04-03T10:06:34.707Z,22.80
2019-04-03T10:11:40.677Z,22.80
2019-04-03T10:16:46.567Z,22.90
2019-04-03T10:21:53.421Z,22.90
2019-04-03T10:26:59.407Z,23.00
2019-04-03T10:32:05.097Z,23.10
2019-04-03T10:37:13.818Z,23.20
2019-04-03T10:42:18.293Z,23.20
2019-04-03T10:47:39.171Z,23.30
2019-04-03T10:52:32.764Z,23.30
2019-04-03T10:57:38.610Z,23.40
2019-04-03T11:02:44.443Z,23.40
2019-04-03T11:07:50.767Z,23.30
2019-04-03T11:12:56.730Z,23.10
2019-04-03T11:18:02.896Z,23.00
2019-04-03T11:23:08.992Z,22.90
2019-04-03T11:28:16.317Z,22.80
2019-04-03T11:33:22.343Z,22.70
2019-04-03T11:38:29.494Z,22.70
2019-04-03T11:43:37.391Z,22.60
2019-04-03T11:48:43.844Z,22.60
2019-04-03T11:53:50.357Z,22.60
2019-04-03T11:58:56.738Z,22.60
2019-04-03T12:04:02.750Z,22.50
2019-04-03T12:09:09.857Z,22.60
2019-04-03T12:14:17.116Z,22.70
2019-04-03T12:19:22.948Z,22.70
2019-04-03T12:24:28.985Z,22.70
2019-04-03T12:29:35.403Z,22.60
2019-04-03T12:34:41.628Z,22.60
2019-04-03T12:39:47.407Z,22.50
2019-04-03T12:45:13.467Z,22.40
2019-04-03T12:50:19.455Z,22.40
2019-04-03T12:55:26.331Z,22.30
2019-04-03T13:00:32.720Z,22.30
2019-04-03T13:05:38.957Z,22.30
2019-04-03T13:10:47.541Z,22.30
2019-04-03T13:15:52.547Z,22.40
2019-04-03T13:20:58.839Z,22.50
2019-04-03T13:26:05.251Z,22.60
2019-04-03T13:31:11.152Z,22.70
2019-04-03T13:36:18.752Z,22.70
2019-04-03T13:41:24.624Z,22.90
2019-04-03T13:46:30.971Z,22.90
2019-04-03T13:51:37.411Z,23.00
2019-04-03T13:56:43.918Z,23.00
2019-04-03T14:01:49.879Z,23.00
2019-04-03T14:06:56.210Z,23.10
2019-04-03T14:12:04.919Z,23.20
2019-04-03T14:17:09.667Z,23.20
2019-04-03T14:22:15.663Z,23.30
2019-04-03T14:27:24.489Z,23.30
2019-04-03T14:32:29.077Z,23.40
2019-04-03T14:37:35.181Z,23.40
2019-04-03T14:42:41.057Z,23.40
2019-04-03T14:47:47.519Z,23.40
2019-04-03T14:52:53.681Z,23.50
2019-04-03T14:57:59.743Z,23.50
2019-04-03T15:03:06.944Z,23.50
2019-04-03T15:08:12.900Z,23.50
2019-04-03T15:13:19.051Z,23.60
2019-04-03T15:18:25.816Z,23.60
2019-04-03T15:23:32.016Z,23.60
2019-04-03T15:28:38.300Z,23.60
2019-04-03T15:33:44.630Z,23.70
2019-04-03T15:38:50.438Z,23.70
2019-04-03T15:43:55.888Z,23.70
2019-04-03T15:49:02.087Z,23.70
2019-04-03T15:54:09.278Z,23.80
2019-04-03T15:59:15.392Z,23.70
2019-04-03T16:04:21.704Z,23.70
2019-04-03T16:09:27.894Z,23.60
2019-04-03T16:14:34.130Z,23.50
2019-04-03T16:19:42.317Z,23.30
2019-04-03T16:24:47.861Z,23.10
2019-04-03T16:29:55.520Z,23.10
2019-04-03T16:35:01.437Z,23.10
2019-04-03T16:40:07.913Z,23.10
2019-04-03T16:45:14.997Z,23.20
2019-04-03T16:50:20.838Z,23.20
2019-04-03T16:55:27.198Z,23.30
2019-04-03T17:00:33.589Z,23.30
2019-04-03T17:05:39.593Z,23.40
2019-04-03T17:10:45.577Z,23.40
2019-04-03T17:15:51.309Z,23.50
2019-04-03T17:20:57.098Z,23.60
2019-04-03T17:26:03.817Z,23.60
2019-04-03T17:31:09.818Z,23.60
2019-04-03T17:36:17.720Z,23.60
2019-04-03T17:41:24.232Z,23.70
2019-04-03T17:46:30.270Z,23.70
2019-04-03T17:51:36.266Z,23.70
2019-04-03T17:56:43.059Z,23.70
2019-04-03T18:01:52.144Z,23.80
2019-04-03T18:06:57.506Z,23.80
2019-04-03T18:12:04.029Z,23.80
2019-04-03T18:17:12.556Z,23.70
2019-04-03T18:22:20.188Z,23.70
2019-04-03T18:27:26.557Z,23.70
2019-04-03T18:32:32.748Z,23.60
2019-04-03T18:37:40.817Z,23.70
2019-04-03T18:42:49.300Z,23.70
2019-04-03T18:47:54.257Z,23.70
2019-04-03T18:53:00.176Z,23.70
2019-04-03T18:58:05.928Z,23.70
2019-04-03T19:03:11.727Z,23.70
2019-04-03T19:08:18.715Z,23.70
2019-04-03T19:13:24.797Z,23.70
2019-04-03T19:18:31.962Z,23.70
2019-04-03T19:23:49.101Z,23.70
2019-04-03T19:28:45.657Z,23.70
2019-04-03T19:33:50.741Z,23.70
2019-04-03T19:38:56.709Z,23.80
2019-04-03T19:44:02.987Z,23.70
2019-04-03T19:49:08.958Z,23.80
2019-04-03T19:54:16.524Z,23.80
2019-04-03T19:59:22.137Z,23.70
2019-04-03T20:04:28.252Z,23.80
2019-04-03T20:09:34.148Z,23.70
2019-04-03T20:14:42.215Z,23.80
2019-04-03T20:19:47.987Z,23.80
2019-04-03T20:24:59.865Z,23.70
2019-04-03T20:30:01.981Z,23.70
2019-04-03T20:35:08.400Z,23.70
2019-04-03T20:40:17.266Z,23.70
2019-04-03T20:45:23.377Z,23.70
2019-04-03T20:50:30.698Z,23.70
2019-04-03T20:55:36.730Z,23.70
2019-04-03T21:00:42.432Z,23.70
2019-04-03T21:05:48.789Z,23.70
2019-04-03T21:10:55.247Z,23.70
2019-04-03T21:16:01.307Z,23.60
2019-04-03T21:21:07.332Z,23.60
2019-04-03T21:26:13.498Z,23.60
2019-04-03T21:31:19.557Z,23.60
2019-04-03T21:36:25.606Z,23.60
2019-04-03T21:41:31.577Z,23.60
2019-04-03T21:46:39.670Z,23.70
2019-04-03T21:51:45.165Z,23.70
2019-04-03T21:56:51.197Z,23.70
2019-04-03T22:01:56.879Z,23.60
2019-04-03T22:07:02.796Z,23.70
2019-04-03T22:12:08.968Z,23.70
2019-04-03T22:17:15.078Z,23.70
2019-04-03T22:22:21.548Z,23.70
2019-04-03T22:27:27.308Z,23.70
2019-04-03T22:32:33.187Z,23.70
2019-04-03T22:37:38.988Z,23.80
2019-04-03T22:42:45.726Z,23.70
2019-04-03T22:47:51.997Z,23.80
2019-04-03T22:52:58.416Z,23.70
2019-04-03T22:58:04.090Z,23.80
2019-04-03T23:03:10.048Z,23.70
2019-04-03T23:08:15.887Z,23.70
2019-04-03T23:13:23.167Z,23.70
2019-04-03T23:18:29.177Z,23.70
2019-04-03T23:23:35.248Z,23.70
2019-04-03T23:28:41.207Z,23.80
2019-04-03T23:33:47.820Z,23.70
2019-04-03T23:38:56.393Z,23.70
2019-04-03T23:44:01.929Z,23.70
2019-04-03T23:49:08.147Z,23.70
2019-04-03T23:54:14.052Z,23.70
2019-04-03T23:59:20.221Z,23.70
